Ronald Reagan Washington National Airport
KDCA : rendu visible

Aérodrome :











RETROUVEZ-NOUS SUR...

 
LOGIN :

S'inscrire | Disclaimer

   EN    FR    IT 

 









Légende :    VFR   VFR Marginal   IFR   IFR Intensif   IFR Très Intensif
Visi : 
Plafond : 
>= 8 km
>= 3000ft
5 à 8 km
1000 à 3000 ft
1500m à 5 km
500 à 1000 ft
800 à 1500m
200 à 500 ft
< 800m
< 200 ft
Symboles :   Orages  Brouillard  Fortes neiges  Fortes précipitations  Vent > 20 kt






- Altitude de l'aérodrome : 15 ft
- Code IATA : DCA


KDCA - Ronald Reagan Washington National

DERNIER METAR :
  • 290852Z 05005KT 7SM OVC004 11/10 A2993 RMK AO2 SLP135 T01060100 58014

METARs EXPIRÉS :
  • 290828Z 06007KT 7SM OVC004 11/10 A2993 RMK AO2 T01060100
  • 290752Z 03008KT 10SM OVC005 11/09 A2994 RMK AO2 SLP139 T01060094
  • 290736Z 04009KT 8SM OVC004 11/09 A2994 RMK AO2 T01060094
  • 290652Z 01006KT 6SM BR OVC006 11/10 A2997 RMK AO2 SLP149 T01110100

TAF KDCA
Valide du 29 à 09h jusqu'au 30 à 12h UTC


290857Z 2909/3012 05005KT 6SM BR OVC004
FM291300 10004KT 5SM BR OVC003
FM291500 14004KT P6SM OVC006
FM291700 17006KT P6SM VCTS BKN035CB
FM292100 21008KT P6SM SCT250



MET'MAP, la Météo Aéronautique d'un coup d'oeil ! - Copyright ORBIFLY Décembre 2007 - Disclaimer

ORBIFLY MET'MAP TEAM :

Programmation & Développement : Alexandra Zaïnal
Sur une idée originale de : Baudouin d'Aumeries
Assistance à la programmation : Marc-Olivier Méhu
Soutien technique & logistique : Manuel Goepfert

Contact : metmap@orbifly.com




SOURCES & CREDITS :

   NOAA       Earth
Advisory